Moycullen, Ireland
Current Conditions -  °F | °C
As of 7:00 PM on Thursday 27 Nov 2014 (Local Time) from EIKN Reporting Station
Broken Clouds Broken Clouds  
Wind Chill: 33°   Ceiling: 4100
Heat Index: 41°   Visibility: 6mi
Dew Point: 39°   Wind: 14mph
Humidity: 93%   Direction: 120°ESE
Pressure: 29.38"   Gusts: NA
Location:  53.34°N, 9.18°W
Report Text: EIKN 271900Z 12012KT 090V150 9999 BKN041 05/04 Q0995 NOSIG
Loading
Personal Weather Stations






























Interactive Weather Map New forecast layout! Learn more

10-Day Weather Forecast

Advertisements
Track Severe Weather on mobile